createdAt,value
2024-02-18T00:00:00.483Z,100994.00
2024-02-18T00:02:29.061Z,100991.34
2024-02-18T00:04:55.970Z,100986.19
2024-02-18T00:07:24.025Z,100986.84
2024-02-18T00:09:52.939Z,100993.81
2024-02-18T00:12:20.081Z,100991.97
2024-02-18T00:14:46.884Z,100998.16
2024-02-18T00:17:13.991Z,100993.63
2024-02-18T00:19:40.941Z,100992.34
2024-02-18T00:22:07.931Z,100992.34
2024-02-18T00:24:34.753Z,100984.53
2024-02-18T00:27:01.599Z,100987.03
2024-02-18T00:29:28.493Z,100985.38
2024-02-18T00:31:55.238Z,100987.41
2024-02-18T00:34:23.736Z,100991.06
2024-02-18T00:36:51.783Z,100988.22
2024-02-18T00:39:18.849Z,100987.41
2024-02-18T00:41:45.712Z,100989.59
2024-02-18T00:44:12.526Z,100977.09
2024-02-18T00:46:46.477Z,100973.63
2024-02-18T00:49:19.255Z,100968.47
2024-02-18T00:51:46.712Z,100961.31
2024-02-18T00:54:13.670Z,100966.22
2024-02-18T00:56:40.530Z,100966.84
2024-02-18T00:59:07.350Z,100968.47
2024-02-18T01:01:34.972Z,100968.47
2024-02-18T01:04:02.436Z,100957.19
2024-02-18T01:06:29.417Z,100965.81
2024-02-18T01:08:56.299Z,100960.88
2024-02-18T01:11:23.344Z,100953.72
2024-02-18T01:13:50.277Z,100956.56
2024-02-18T01:16:17.100Z,100954.06
2024-02-18T01:18:45.369Z,100951.88
2024-02-18T01:21:12.707Z,100952.88
2024-02-18T01:23:39.683Z,100947.91
2024-02-18T01:26:06.933Z,100945.06
2024-02-18T01:28:34.033Z,100947.91
2024-02-18T01:31:01.979Z,100944.88
2024-02-18T01:33:29.173Z,100936.91
2024-02-18T01:35:55.967Z,100943.59
2024-02-18T01:38:23.689Z,100943.78
2024-02-18T01:40:50.476Z,100946.28
2024-02-18T01:43:19.691Z,100947.47
2024-02-18T01:45:51.011Z,100939.28
2024-02-18T01:48:20.536Z,100941.50
2024-02-18T01:50:48.243Z,100933.91
2024-02-18T01:53:15.339Z,100922.03
2024-02-18T01:55:44.004Z,100921.19
2024-02-18T01:58:12.071Z,100920.41
2024-02-18T02:00:40.917Z,100915.06
2024-02-18T02:03:09.154Z,100918.09
2024-02-18T02:05:40.384Z,100920.78
2024-02-18T02:08:07.616Z,100911.94
2024-02-18T02:10:35.307Z,100925.28
2024-02-18T02:13:02.037Z,100922.59
2024-02-18T02:15:29.010Z,100923.63
2024-02-18T02:17:55.888Z,100927.09
2024-02-18T02:20:22.756Z,100914.97
2024-02-18T02:22:49.672Z,100914.16
2024-02-18T02:25:17.110Z,100907.81
2024-02-18T02:27:50.238Z,100916.63
2024-02-18T02:30:16.908Z,100914.81
2024-02-18T02:32:43.795Z,100914.16
2024-02-18T02:35:10.701Z,100921.50
2024-02-18T02:37:37.569Z,100928.50
2024-02-18T02:40:05.933Z,100930.13
2024-02-18T02:42:34.262Z,100937.13
2024-02-18T02:45:01.363Z,100925.63
2024-02-18T02:47:28.174Z,100932.16
2024-02-18T02:49:55.147Z,100926.47
2024-02-18T02:52:22.019Z,100933.81
2024-02-18T02:54:48.908Z,100927.03
2024-02-18T02:57:15.800Z,100932.34
2024-02-18T02:59:42.584Z,100937.69
2024-02-18T03:02:09.331Z,100939.50
2024-02-18T03:04:36.267Z,100934.59
2024-02-18T03:07:03.179Z,100944.00
2024-02-18T03:09:29.936Z,100935.19
2024-02-18T03:11:56.725Z,100931.91
2024-02-18T03:14:23.530Z,100934.59
2024-02-18T03:16:50.268Z,100931.91
2024-02-18T03:19:17.238Z,100934.59
2024-02-18T03:21:44.115Z,100925.59
2024-02-18T03:24:11.856Z,100928.44
2024-02-18T03:26:38.626Z,100941.56
2024-02-18T03:29:06.113Z,100925.38
2024-02-18T03:31:32.929Z,100935.84
2024-02-18T03:33:59.743Z,100944.59
2024-02-18T03:36:26.825Z,100939.44
2024-02-18T03:38:53.784Z,100931.28
2024-02-18T03:41:20.768Z,100933.94
2024-02-18T03:43:47.496Z,100931.09
2024-02-18T03:46:14.548Z,100947.25
2024-02-18T03:48:41.689Z,100949.75
2024-02-18T03:51:08.541Z,100951.94
2024-02-18T03:53:35.288Z,100950.28
2024-02-18T03:56:02.028Z,100951.31
2024-02-18T03:58:28.798Z,100952.78
2024-02-18T04:00:55.566Z,100947.63
2024-02-18T04:03:22.614Z,100956.63
2024-02-18T04:05:49.486Z,100963.97
2024-02-18T04:08:16.212Z,100952.50
2024-02-18T04:10:43.007Z,100953.31
2024-02-18T04:13:09.973Z,100964.81
2024-02-18T04:15:36.827Z,100962.31
2024-02-18T04:18:04.181Z,100964.16
2024-02-18T04:20:30.992Z,100955.56
2024-02-18T04:22:57.804Z,100963.16
2024-02-18T04:25:24.552Z,100953.31
2024-02-18T04:27:51.615Z,100952.50
2024-02-18T04:30:18.399Z,100952.69
2024-02-18T04:32:45.166Z,100956.56
2024-02-18T04:35:12.047Z,100950.97
2024-02-18T04:37:38.871Z,100958.78
2024-02-18T04:40:06.246Z,100951.25
2024-02-18T04:42:33.175Z,100960.97
2024-02-18T04:44:59.946Z,100955.91
2024-02-18T04:47:27.228Z,100950.41
2024-02-18T04:49:54.316Z,100956.09
2024-02-18T04:52:21.230Z,100958.41
2024-02-18T04:54:48.019Z,100955.47
2024-02-18T04:57:15.404Z,100966.94
2024-02-18T04:59:42.329Z,100956.47
2024-02-18T05:02:09.561Z,100949.94
2024-02-18T05:04:36.361Z,100949.13
2024-02-18T05:07:03.335Z,100946.81
2024-02-18T05:09:30.278Z,100951.97
2024-02-18T05:11:57.071Z,100951.78
2024-02-18T05:14:23.823Z,100938.47
2024-02-18T05:16:50.629Z,100947.47
2024-02-18T05:19:18.375Z,100929.59
2024-02-18T05:21:45.456Z,100941.69
2024-02-18T05:24:13.177Z,100946.66
2024-02-18T05:26:40.371Z,100941.69
2024-02-18T05:29:07.802Z,100945.16
2024-02-18T05:31:36.498Z,100939.66
2024-02-18T05:34:03.821Z,100945.16
2024-02-18T05:36:31.136Z,100954.75
2024-02-18T05:38:57.910Z,100945.56
2024-02-18T05:41:24.874Z,100948.97
2024-02-18T05:43:51.647Z,100959.72
2024-02-18T05:46:18.466Z,100959.25
2024-02-18T05:48:46.218Z,100966.59
2024-02-18T05:51:13.157Z,100964.22
2024-02-18T05:53:39.888Z,100964.38
2024-02-18T05:56:08.188Z,100969.91
2024-02-18T05:58:35.002Z,100984.22
2024-02-18T06:01:02.146Z,100982.19
2024-02-18T06:03:29.724Z,100978.72
2024-02-18T06:05:57.754Z,100983.03
2024-02-18T06:08:27.587Z,100988.91
2024-02-18T06:10:54.712Z,100986.88
2024-02-18T06:13:21.608Z,100982.75
2024-02-18T06:15:48.366Z,100994.03
2024-02-18T06:18:15.372Z,100991.91
2024-02-18T06:20:42.208Z,100987.06
2024-02-18T06:23:09.000Z,100987.06
2024-02-18T06:25:38.736Z,100991.91
2024-02-18T06:28:09.751Z,100992.56
2024-02-18T06:30:38.149Z,100987.88
2024-02-18T06:33:06.253Z,100991.56
2024-02-18T06:35:33.297Z,100990.09
2024-02-18T06:38:00.161Z,100993.84
2024-02-18T06:40:26.888Z,101004.16
2024-02-18T06:42:53.690Z,100998.19
2024-02-18T06:45:20.584Z,100992.84
2024-02-18T06:47:49.128Z,100994.50
2024-02-18T06:50:17.127Z,100997.41
2024-02-18T06:52:43.961Z,100994.03
2024-02-18T06:55:11.474Z,100995.56
2024-02-18T06:57:38.535Z,100998.88
2024-02-18T07:00:05.920Z,100991.97
2024-02-18T07:02:32.630Z,100987.69
2024-02-18T07:05:01.266Z,100985.81
2024-02-18T07:07:28.389Z,100998.75
2024-02-18T07:09:55.269Z,101010.88
2024-02-18T07:12:22.292Z,101001.88
2024-02-18T07:14:49.146Z,101000.06
2024-02-18T07:17:21.228Z,100985.91
2024-02-18T07:19:48.746Z,100997.03
2024-02-18T07:22:16.420Z,100986.38
2024-02-18T07:24:44.461Z,100993.13
2024-02-18T07:27:11.276Z,100990.75
2024-02-18T07:29:38.083Z,100983.38
2024-02-18T07:32:05.244Z,100982.84
2024-02-18T07:34:33.223Z,100985.50
2024-02-18T07:37:00.196Z,100983.66
2024-02-18T07:39:28.316Z,100982.44
2024-02-18T07:41:55.138Z,100980.78
2024-02-18T07:44:21.985Z,100989.41
2024-02-18T07:46:49.653Z,100979.41
2024-02-18T07:49:17.652Z,100982.06
2024-02-18T07:51:44.579Z,100981.25
2024-02-18T07:54:11.469Z,100978.38
2024-02-18T07:56:49.245Z,100973.88
2024-02-18T07:59:18.198Z,100974.53
2024-02-18T08:01:46.778Z,100964.06
2024-02-18T08:04:13.855Z,100965.69
2024-02-18T08:06:43.504Z,100954.03
2024-02-18T08:09:11.872Z,100956.69
2024-02-18T08:11:39.127Z,100950.34
2024-02-18T08:14:05.854Z,100961.66
2024-02-18T08:16:32.638Z,100956.31
2024-02-18T08:18:59.633Z,100959.59
2024-02-18T08:21:26.594Z,100951.59
2024-02-18T08:23:53.405Z,100948.09
2024-02-18T08:26:27.657Z,100947.91
2024-02-18T08:28:54.898Z,100945.91
2024-02-18T08:31:22.656Z,100941.56
2024-02-18T08:33:50.157Z,100941.56
2024-02-18T08:36:17.042Z,100941.56
2024-02-18T08:38:44.681Z,100940.94
2024-02-18T08:41:12.432Z,100937.06
2024-02-18T08:43:43.307Z,100941.56
2024-02-18T08:46:10.779Z,100937.06
2024-02-18T08:48:38.544Z,100931.75
2024-02-18T08:51:07.421Z,100930.72
2024-02-18T08:53:34.871Z,100925.22
2024-02-18T08:56:01.784Z,100928.06
2024-02-18T08:58:28.550Z,100926.03
2024-02-18T09:00:55.435Z,100930.53
2024-02-18T09:03:22.197Z,100930.53
2024-02-18T09:05:49.073Z,100916.38
2024-02-18T09:08:15.965Z,100916.38
2024-02-18T09:10:42.856Z,100920.88
2024-02-18T09:13:09.847Z,100917.41
2024-02-18T09:15:36.805Z,100925.78
2024-02-18T09:18:03.757Z,100925.97
2024-02-18T09:20:30.842Z,100921.66
2024-02-18T09:22:57.761Z,100907.31
2024-02-18T09:25:24.466Z,100910.56
2024-02-18T09:27:51.345Z,100910.19
2024-02-18T09:30:18.666Z,100899.72
2024-02-18T09:32:46.446Z,100906.06
2024-02-18T09:35:14.348Z,100903.00
2024-02-18T09:37:41.637Z,100900.13
2024-02-18T09:40:10.925Z,100884.97
2024-02-18T09:42:42.873Z,100887.44
2024-02-18T09:45:15.433Z,100882.94
2024-02-18T09:47:45.215Z,100871.44
2024-02-18T09:50:12.987Z,100874.94
2024-02-18T09:52:44.522Z,100864.28
2024-02-18T09:55:13.165Z,100867.59
2024-02-18T09:57:40.314Z,100869.41
2024-02-18T10:00:09.750Z,100866.56
2024-02-18T10:02:40.614Z,100860.41
2024-02-18T10:05:12.332Z,100872.09
2024-02-18T10:07:39.600Z,100862.44
2024-02-18T10:10:09.218Z,100859.97
2024-02-18T10:12:36.359Z,100859.13
2024-02-18T10:15:05.892Z,100858.50
2024-02-18T10:17:33.369Z,100855.03
2024-02-18T10:20:00.736Z,100857.47
2024-02-18T10:22:27.635Z,100863.63
2024-02-18T10:24:55.406Z,100858.31
2024-02-18T10:27:23.008Z,100851.31
2024-02-18T10:29:50.335Z,100854.63
2024-02-18T10:32:17.995Z,100850.13
2024-02-18T10:34:49.121Z,100854.63
2024-02-18T10:37:37.819Z,100860.78
2024-02-18T10:40:40.306Z,100862.63
2024-02-18T10:43:11.620Z,100845.81
2024-02-18T10:45:41.755Z,100853.44
2024-02-18T10:48:11.577Z,100853.44
2024-02-18T10:50:44.300Z,100857.94
2024-02-18T10:53:41.373Z,100855.25
2024-02-18T10:56:35.102Z,100857.94
2024-02-18T10:59:11.035Z,100854.25
2024-02-18T11:01:44.356Z,100845.25
2024-02-18T11:04:12.029Z,100850.56
2024-02-18T11:06:39.322Z,100846.91
2024-02-18T11:09:12.898Z,100844.22
2024-02-18T11:11:42.406Z,100847.72
2024-02-18T11:14:10.362Z,100848.53
2024-02-18T11:16:39.234Z,100843.03
2024-02-18T11:19:07.406Z,100839.53
2024-02-18T11:21:34.586Z,100836.88
2024-02-18T11:24:01.331Z,100830.53
2024-02-18T11:26:28.704Z,100832.16
2024-02-18T11:29:01.496Z,100827.66
2024-02-18T11:31:30.612Z,100833.00
2024-02-18T11:34:00.853Z,100829.28
2024-02-18T11:36:28.667Z,100829.28
2024-02-18T11:38:57.660Z,100825.78
2024-02-18T11:41:29.176Z,100815.13
2024-02-18T11:43:57.034Z,100820.28
2024-02-18T11:46:26.400Z,100812.47
2024-02-18T11:48:54.354Z,100814.13
2024-02-18T11:51:27.177Z,100813.09
2024-02-18T11:53:56.110Z,100806.13
2024-02-18T11:56:22.893Z,100806.13
2024-02-18T11:58:51.052Z,100804.28
2024-02-18T12:01:20.751Z,100809.41
2024-02-18T12:03:48.677Z,100805.94
2024-02-18T12:06:15.879Z,100802.44
2024-02-18T12:08:42.872Z,100805.94
2024-02-18T12:11:09.811Z,100805.94
2024-02-18T12:13:36.632Z,100805.94
2024-02-18T12:16:05.405Z,100796.09
2024-02-18T12:18:32.625Z,100801.41
2024-02-18T12:20:59.528Z,100797.72
2024-02-18T12:23:27.070Z,100801.41
2024-02-18T12:25:55.118Z,100800.41
2024-02-18T12:28:22.156Z,100798.59
2024-02-18T12:30:50.209Z,100794.25
2024-02-18T12:33:17.641Z,100798.75
2024-02-18T12:35:45.213Z,100794.25
2024-02-18T12:38:12.094Z,100788.09
2024-02-18T12:40:41.685Z,100787.06
2024-02-18T12:45:44.808Z,100789.75
2024-02-18T12:48:17.098Z,100782.59
2024-02-18T12:50:44.733Z,100797.72
2024-02-18T12:53:11.751Z,100803.06
2024-02-18T12:55:39.496Z,100793.25
2024-02-18T12:58:07.018Z,100795.25
2024-02-18T13:00:34.077Z,100789.75
2024-02-18T13:03:03.107Z,100797.72
2024-02-18T13:05:30.074Z,100789.94
2024-02-18T13:07:58.293Z,100786.25
2024-02-18T13:10:25.406Z,100788.91
2024-02-18T13:12:52.342Z,100787.94
2024-02-18T13:15:19.244Z,100787.94
2024-02-18T13:17:51.689Z,100788.75
2024-02-18T13:20:19.117Z,100789.56
2024-02-18T13:22:48.674Z,100770.91
2024-02-18T13:25:15.804Z,100779.72
2024-02-18T13:27:43.497Z,100778.91
2024-02-18T13:30:10.839Z,100786.72
2024-02-18T13:32:38.086Z,100789.38
2024-02-18T13:35:05.630Z,100793.69
2024-02-18T13:37:32.725Z,100799.84
2024-02-18T13:39:59.473Z,100800.50
2024-02-18T13:42:26.314Z,100799.03
2024-02-18T13:44:53.057Z,100791.03
2024-02-18T13:47:22.150Z,100796.38
2024-02-18T13:49:49.300Z,100796.38
2024-02-18T13:52:16.299Z,100798.03
2024-02-18T13:54:43.147Z,100795.34
2024-02-18T13:57:10.044Z,100803.34
2024-02-18T13:59:37.077Z,100795.34
2024-02-18T14:02:05.483Z,100806.66
2024-02-18T14:04:32.452Z,100803.97
2024-02-18T14:06:59.382Z,100804.19
2024-02-18T14:09:26.343Z,100802.34
2024-02-18T14:11:53.097Z,100802.53
2024-02-18T14:14:19.777Z,100802.53
2024-02-18T14:16:48.533Z,100798.22
2024-02-18T14:19:17.062Z,100792.06
2024-02-18T14:21:45.186Z,100794.72
2024-02-18T14:24:12.692Z,100797.38
2024-02-18T14:26:39.689Z,100797.38
2024-02-18T14:29:06.633Z,100790.41
2024-02-18T14:31:33.425Z,100803.72
2024-02-18T14:34:00.293Z,100801.06
2024-02-18T14:36:27.284Z,100801.06
2024-02-18T14:38:56.719Z,100810.91
2024-02-18T14:41:24.084Z,100811.72
2024-02-18T14:43:50.927Z,100807.41
2024-02-18T14:46:17.764Z,100804.75
2024-02-18T14:48:44.843Z,100810.09
2024-02-18T14:51:13.096Z,100807.41
2024-02-18T14:53:50.569Z,100812.75
2024-02-18T14:56:21.082Z,100811.06
2024-02-18T14:58:48.658Z,100819.06
2024-02-18T15:01:15.506Z,100811.06
2024-02-18T15:03:42.749Z,100814.59
2024-02-18T15:06:09.786Z,100812.91
2024-02-18T15:08:36.668Z,100817.41
2024-02-18T15:11:03.560Z,100814.75
2024-02-18T15:13:30.349Z,100806.75
2024-02-18T15:15:57.351Z,100812.09
2024-02-18T15:18:24.677Z,100812.09
2024-02-18T15:20:52.950Z,100807.56
2024-02-18T15:23:20.811Z,100805.09
2024-02-18T15:25:52.605Z,100808.59
2024-02-18T15:28:19.768Z,100812.09
2024-02-18T15:30:47.005Z,100804.28
2024-02-18T15:33:13.958Z,100811.25
2024-02-18T15:35:41.438Z,100815.75
2024-02-18T15:38:08.400Z,100815.94
2024-02-18T15:40:35.220Z,100824.78
2024-02-18T15:43:02.537Z,100820.28
2024-02-18T15:45:29.541Z,100828.25
2024-02-18T15:47:57.455Z,100822.09
2024-02-18T15:50:24.599Z,100825.78
2024-02-18T15:52:51.461Z,100829.28
2024-02-18T15:55:20.185Z,100823.13
2024-02-18T15:57:47.186Z,100831.94
2024-02-18T16:00:15.152Z,100833.78
2024-02-18T16:02:41.856Z,100839.13
2024-02-18T16:05:08.930Z,100837.28
2024-02-18T16:07:35.780Z,100833.78
2024-02-18T16:10:02.678Z,100835.66
2024-02-18T16:12:29.617Z,100844.44
2024-02-18T16:14:56.360Z,100838.31
2024-02-18T16:17:25.756Z,100851.66
2024-02-18T16:19:54.330Z,100861.50
2024-02-18T16:22:21.194Z,100853.50
2024-02-18T16:24:48.317Z,100859.66
2024-02-18T16:27:15.154Z,100851.66
2024-02-18T16:29:41.973Z,100857.78
2024-02-18T16:32:11.061Z,100850.84
2024-02-18T16:34:37.919Z,100854.31
2024-02-18T16:37:05.046Z,100855.34
2024-02-18T16:39:36.514Z,100858.81
2024-02-18T16:42:04.459Z,100857.19
2024-02-18T16:44:31.942Z,100865.19
2024-02-18T16:47:01.519Z,100865.00
2024-02-18T16:49:28.552Z,100867.84
2024-02-18T16:51:57.366Z,100866.81
2024-02-18T16:54:24.200Z,100868.84
2024-02-18T16:56:51.950Z,100872.34
2024-02-18T16:59:19.516Z,100875.84
2024-02-18T17:01:50.058Z,100876.66
2024-02-18T17:04:17.355Z,100875.00
2024-02-18T17:06:44.431Z,100880.16
2024-02-18T17:09:13.428Z,100876.03
2024-02-18T17:11:40.319Z,100876.84
2024-02-18T17:14:07.080Z,100877.69
2024-02-18T17:16:37.489Z,100871.53
2024-02-18T17:19:08.358Z,100871.53
2024-02-18T17:21:35.605Z,100879.50
2024-02-18T17:24:03.183Z,100877.69
2024-02-18T17:26:30.251Z,100870.69
2024-02-18T17:28:57.037Z,100883.19
2024-02-18T17:31:26.269Z,100877.03
2024-02-18T17:33:56.476Z,100882.19
2024-02-18T17:36:24.682Z,100871.53
2024-02-18T17:38:51.520Z,100876.03
2024-02-18T17:41:18.284Z,100881.34
2024-02-18T17:43:45.111Z,100872.53
2024-02-18T17:46:12.112Z,100879.50
2024-02-18T17:48:39.869Z,100876.84
2024-02-18T17:51:07.667Z,100873.34
2024-02-18T17:53:34.527Z,100875.19
2024-02-18T17:56:01.379Z,100869.88
2024-02-18T17:58:29.489Z,100876.03
2024-02-18T18:00:56.606Z,100869.88
2024-02-18T18:03:24.117Z,100874.38
2024-02-18T18:05:50.878Z,100874.19
2024-02-18T18:08:17.619Z,100877.88
2024-02-18T18:10:44.812Z,100872.34
2024-02-18T18:13:11.689Z,100865.38
2024-02-18T18:15:38.537Z,100867.19
2024-02-18T18:18:05.672Z,100864.53
2024-02-18T18:20:32.401Z,100858.38
2024-02-18T18:22:59.145Z,100858.38
2024-02-18T18:25:25.890Z,100853.88
2024-02-18T18:27:52.713Z,100849.38
2024-02-18T18:30:19.526Z,100853.88
2024-02-18T18:32:46.430Z,100848.53
2024-02-18T18:35:13.564Z,100853.88
2024-02-18T18:37:40.517Z,100853.06
2024-02-18T18:40:09.216Z,100853.88
2024-02-18T18:42:37.838Z,100848.53
2024-02-18T18:45:08.681Z,100846.91
2024-02-18T18:47:36.261Z,100845.88
2024-02-18T18:50:05.258Z,100845.88
2024-02-18T18:52:32.216Z,100846.69
2024-02-18T18:54:59.009Z,100845.88
2024-02-18T18:57:25.893Z,100853.06
2024-02-18T18:59:52.662Z,100855.72
2024-02-18T19:02:19.463Z,100856.72
2024-02-18T19:04:46.440Z,100865.56
2024-02-18T19:07:13.273Z,100867.19
2024-02-18T19:09:40.137Z,100859.22
2024-02-18T19:12:07.356Z,100858.56
2024-02-18T19:14:34.623Z,100868.22
2024-02-18T19:17:01.380Z,100869.88
2024-02-18T19:19:28.215Z,100859.41
2024-02-18T19:21:58.178Z,100865.56
2024-02-18T19:24:26.981Z,100866.38
2024-02-18T19:26:53.867Z,100869.03
2024-02-18T19:29:21.284Z,100864.53
2024-02-18T19:31:48.014Z,100865.56
2024-02-18T19:34:14.868Z,100867.19
2024-02-18T19:36:44.415Z,100863.72
2024-02-18T19:39:11.611Z,100868.22
2024-02-18T19:41:42.076Z,100865.75
2024-02-18T19:44:09.465Z,100871.72
2024-02-18T19:46:43.300Z,100869.03
2024-02-18T19:49:11.580Z,100863.72
2024-02-18T19:51:38.497Z,100862.88
2024-02-18T19:54:05.853Z,100862.88
2024-02-18T19:56:32.605Z,100855.91
2024-02-18T19:58:59.344Z,100863.72
2024-02-18T20:01:26.173Z,100858.38
2024-02-18T20:03:53.167Z,100852.22
2024-02-18T20:06:20.003Z,100853.06
2024-02-18T20:08:46.701Z,100852.22
2024-02-18T20:11:13.561Z,100848.72
2024-02-18T20:13:40.305Z,100862.06
2024-02-18T20:16:07.492Z,100863.72
2024-02-18T20:18:37.001Z,100861.03
2024-02-18T20:21:05.902Z,100854.88
2024-02-18T20:23:32.843Z,100856.72
2024-02-18T20:25:59.986Z,100853.06
2024-02-18T20:28:26.883Z,100853.06
2024-02-18T20:30:53.676Z,100862.88
2024-02-18T20:33:20.681Z,100859.22
2024-02-18T20:35:47.457Z,100854.06
2024-02-18T20:38:14.468Z,100854.88
2024-02-18T20:40:42.520Z,100850.56
2024-02-18T20:43:09.414Z,100851.41
2024-02-18T20:45:36.247Z,100856.72
2024-02-18T20:48:04.359Z,100856.72
2024-02-18T20:50:31.178Z,100849.75
2024-02-18T20:52:59.092Z,100853.25
2024-02-18T20:55:26.943Z,100855.06
2024-02-18T20:57:53.711Z,100855.91
2024-02-18T21:00:21.007Z,100852.41
2024-02-18T21:02:47.777Z,100850.56
2024-02-18T21:05:14.730Z,100848.91
2024-02-18T21:07:41.543Z,100855.06
2024-02-18T21:10:08.745Z,100850.56
2024-02-18T21:12:35.665Z,100851.59
2024-02-18T21:15:02.464Z,100851.59
2024-02-18T21:17:29.428Z,100853.44
2024-02-18T21:19:56.431Z,100851.59
2024-02-18T21:22:23.436Z,100851.59
2024-02-18T21:24:50.372Z,100857.75
2024-02-18T21:27:17.179Z,100851.59
2024-02-18T21:29:44.041Z,100855.06
2024-02-18T21:32:12.013Z,100855.06
2024-02-18T21:34:39.356Z,100859.59
2024-02-18T21:37:06.168Z,100869.41
2024-02-18T21:39:41.026Z,100870.25
2024-02-18T21:42:14.839Z,100869.41
2024-02-18T21:44:41.680Z,100873.94
2024-02-18T21:47:08.422Z,100871.25
2024-02-18T21:49:36.334Z,100873.09
2024-02-18T21:52:04.093Z,100873.94
2024-02-18T21:54:31.239Z,100879.44
2024-02-18T21:56:58.193Z,100870.44
2024-02-18T21:59:25.173Z,100877.59
2024-02-18T22:01:53.455Z,100874.94
2024-02-18T22:04:20.987Z,100876.59
2024-02-18T22:07:00.592Z,100872.28
2024-02-18T22:09:34.742Z,100873.09
2024-02-18T22:12:01.476Z,100885.41
2024-02-18T22:14:28.232Z,100877.59
2024-02-18T22:16:54.977Z,100885.59
2024-02-18T22:19:21.901Z,100873.09
2024-02-18T22:21:48.801Z,100868.78
2024-02-18T22:24:15.602Z,100868.97
2024-02-18T22:26:42.428Z,100868.97
2024-02-18T22:29:09.260Z,100869.97
2024-02-18T22:31:35.968Z,100874.50
2024-02-18T22:34:02.904Z,100864.66
2024-02-18T22:36:29.904Z,100862.81
2024-02-18T22:38:57.387Z,100868.97
2024-02-18T22:41:24.108Z,100862.63
2024-02-18T22:43:50.821Z,100868.97
2024-02-18T22:46:17.626Z,100863.63
2024-02-18T22:48:44.575Z,100867.13
2024-02-18T22:51:11.395Z,100868.16
2024-02-18T22:53:42.133Z,100864.47
2024-02-18T22:56:09.540Z,100869.97
2024-02-18T22:58:36.916Z,100859.31
2024-02-18T23:01:04.108Z,100864.66
2024-02-18T23:03:31.160Z,100864.66
2024-02-18T23:05:58.046Z,100857.72
2024-02-18T23:08:25.230Z,100857.72
2024-02-18T23:10:52.357Z,100860.56
2024-02-18T23:13:19.467Z,100860.38
2024-02-18T23:15:46.381Z,100862.22
2024-02-18T23:18:13.198Z,100859.53
2024-02-18T23:20:40.469Z,100861.56
2024-02-18T23:23:07.978Z,100857.91
2024-02-18T23:25:34.919Z,100851.75
2024-02-18T23:28:01.726Z,100858.09
2024-02-18T23:30:28.517Z,100860.75
2024-02-18T23:32:55.765Z,100859.91
2024-02-18T23:35:25.236Z,100856.25
2024-02-18T23:37:51.997Z,100853.75
2024-02-18T23:40:19.131Z,100855.41
2024-02-18T23:42:46.032Z,100858.28
2024-02-18T23:45:12.845Z,100859.09
2024-02-18T23:47:39.690Z,100865.25
2024-02-18T23:50:07.231Z,100863.59
2024-02-18T23:52:33.793Z,100859.09
2024-02-18T23:55:00.668Z,100858.28
2024-02-18T23:57:27.948Z,100864.25
2024-02-18T23:59:54.799Z,100866.91
